sensor_id;sensor_type;location;lat;lon;timestamp;temperature;humidity
6865;DHT22;3471;49.678;8.388;2023-07-31T00:02:23;21.00;99.90
6865;DHT22;3471;49.678;8.388;2023-07-31T00:04:48;21.00;99.90
6865;DHT22;3471;49.678;8.388;2023-07-31T00:07:14;21.00;99.90
6865;DHT22;3471;49.678;8.388;2023-07-31T00:09:40;21.00;99.90
6865;DHT22;3471;49.678;8.388;2023-07-31T00:12:06;21.00;99.90
6865;DHT22;3471;49.678;8.388;2023-07-31T00:14:31;21.00;99.90
6865;DHT22;3471;49.678;8.388;2023-07-31T00:16:57;20.90;99.90
6865;DHT22;3471;49.678;8.388;2023-07-31T00:19:23;20.90;99.90
6865;DHT22;3471;49.678;8.388;2023-07-31T00:21:48;20.80;99.90
6865;DHT22;3471;49.678;8.388;2023-07-31T00:24:14;20.80;99.90
6865;DHT22;3471;49.678;8.388;2023-07-31T00:26:39;20.80;99.90
6865;DHT22;3471;49.678;8.388;2023-07-31T00:29:05;20.80;99.90
6865;DHT22;3471;49.678;8.388;2023-07-31T00:31:30;20.70;99.90
6865;DHT22;3471;49.678;8.388;2023-07-31T00:33:56;20.70;99.90
6865;DHT22;3471;49.678;8.388;2023-07-31T00:36:21;20.70;99.90
6865;DHT22;3471;49.678;8.388;2023-07-31T00:38:47;20.70;99.90
6865;DHT22;3471;49.678;8.388;2023-07-31T00:41:13;20.70;99.90
6865;DHT22;3471;49.678;8.388;2023-07-31T00:43:38;20.70;99.90
6865;DHT22;3471;49.678;8.388;2023-07-31T00:46:04;20.70;99.90
6865;DHT22;3471;49.678;8.388;2023-07-31T00:48:30;20.70;99.90
6865;DHT22;3471;49.678;8.388;2023-07-31T00:50:55;20.70;99.90
6865;DHT22;3471;49.678;8.388;2023-07-31T00:53:22;20.60;99.90
6865;DHT22;3471;49.678;8.388;2023-07-31T00:55:48;20.60;99.90
6865;DHT22;3471;49.678;8.388;2023-07-31T00:58:13;20.60;99.90
6865;DHT22;3471;49.678;8.388;2023-07-31T01:00:39;20.60;99.90
6865;DHT22;3471;49.678;8.388;2023-07-31T01:03:05;20.60;99.90
6865;DHT22;3471;49.678;8.388;2023-07-31T01:05:49;20.60;99.90
6865;DHT22;3471;49.678;8.388;2023-07-31T01:11:17;20.50;99.90
6865;DHT22;3471;49.678;8.388;2023-07-31T01:13:45;20.40;99.90
6865;DHT22;3471;49.678;8.388;2023-07-31T01:16:11;20.40;99.90
6865;DHT22;3471;49.678;8.388;2023-07-31T01:18:37;20.40;99.90
6865;DHT22;3471;49.678;8.388;2023-07-31T01:27:07;20.40;99.90
6865;DHT22;3471;49.678;8.388;2023-07-31T01:29:55;20.40;99.90
6865;DHT22;3471;49.678;8.388;2023-07-31T01:32:22;20.40;99.90
6865;DHT22;3471;49.678;8.388;2023-07-31T01:34:49;20.40;99.90
6865;DHT22;3471;49.678;8.388;2023-07-31T01:37:15;20.30;99.90
6865;DHT22;3471;49.678;8.388;2023-07-31T01:39:40;20.30;99.90
6865;DHT22;3471;49.678;8.388;2023-07-31T01:42:06;20.40;99.90
6865;DHT22;3471;49.678;8.388;2023-07-31T01:44:32;20.40;99.90
6865;DHT22;3471;49.678;8.388;2023-07-31T01:46:58;20.40;99.90
6865;DHT22;3471;49.678;8.388;2023-07-31T01:49:25;20.40;99.90
6865;DHT22;3471;49.678;8.388;2023-07-31T01:51:51;20.40;99.90
6865;DHT22;3471;49.678;8.388;2023-07-31T01:54:16;20.40;99.90
6865;DHT22;3471;49.678;8.388;2023-07-31T01:56:42;20.30;99.90
6865;DHT22;3471;49.678;8.388;2023-07-31T01:59:07;20.40;99.90
6865;DHT22;3471;49.678;8.388;2023-07-31T02:01:33;20.40;99.90
6865;DHT22;3471;49.678;8.388;2023-07-31T02:03:59;20.40;99.90
6865;DHT22;3471;49.678;8.388;2023-07-31T02:06:24;20.40;99.90
6865;DHT22;3471;49.678;8.388;2023-07-31T02:08:50;20.40;99.90
6865;DHT22;3471;49.678;8.388;2023-07-31T02:11:15;20.40;99.90
6865;DHT22;3471;49.678;8.388;2023-07-31T02:13:41;20.30;99.90
6865;DHT22;3471;49.678;8.388;2023-07-31T02:16:07;20.30;99.90
6865;DHT22;3471;49.678;8.388;2023-07-31T02:18:32;20.20;99.90
6865;DHT22;3471;49.678;8.388;2023-07-31T02:20:58;20.20;99.90
6865;DHT22;3471;49.678;8.388;2023-07-31T02:23:23;20.20;99.90
6865;DHT22;3471;49.678;8.388;2023-07-31T02:25:49;20.20;99.90
6865;DHT22;3471;49.678;8.388;2023-07-31T02:28:14;20.10;99.90
6865;DHT22;3471;49.678;8.388;2023-07-31T02:30:42;20.10;99.90
6865;DHT22;3471;49.678;8.388;2023-07-31T02:33:09;20.10;99.90
6865;DHT22;3471;49.678;8.388;2023-07-31T02:35:34;20.10;99.90
6865;DHT22;3471;49.678;8.388;2023-07-31T02:38:00;20.10;99.90
6865;DHT22;3471;49.678;8.388;2023-07-31T02:40:25;20.10;99.90
6865;DHT22;3471;49.678;8.388;2023-07-31T02:42:51;20.10;99.90
6865;DHT22;3471;49.678;8.388;2023-07-31T02:45:16;20.10;99.90
6865;DHT22;3471;49.678;8.388;2023-07-31T02:47:42;20.00;99.90
6865;DHT22;3471;49.678;8.388;2023-07-31T02:50:08;20.00;99.90
6865;DHT22;3471;49.678;8.388;2023-07-31T02:52:33;19.90;99.90
6865;DHT22;3471;49.678;8.388;2023-07-31T02:54:59;19.90;99.90
6865;DHT22;3471;49.678;8.388;2023-07-31T02:57:25;19.90;99.90
6865;DHT22;3471;49.678;8.388;2023-07-31T02:59:50;19.90;99.90
6865;DHT22;3471;49.678;8.388;2023-07-31T03:02:16;19.90;99.90
6865;DHT22;3471;49.678;8.388;2023-07-31T03:04:41;19.90;99.90
6865;DHT22;3471;49.678;8.388;2023-07-31T03:07:07;19.90;99.90
6865;DHT22;3471;49.678;8.388;2023-07-31T03:09:32;19.90;99.90
6865;DHT22;3471;49.678;8.388;2023-07-31T03:11:58;19.90;99.90
6865;DHT22;3471;49.678;8.388;2023-07-31T03:14:24;19.90;99.90
6865;DHT22;3471;49.678;8.388;2023-07-31T03:16:51;19.90;99.90
6865;DHT22;3471;49.678;8.388;2023-07-31T03:19:17;19.90;99.90
6865;DHT22;3471;49.678;8.388;2023-07-31T03:21:43;19.90;99.90
6865;DHT22;3471;49.678;8.388;2023-07-31T03:24:08;19.80;99.90
6865;DHT22;3471;49.678;8.388;2023-07-31T03:26:34;19.80;99.90
6865;DHT22;3471;49.678;8.388;2023-07-31T03:29:00;19.80;99.90
6865;DHT22;3471;49.678;8.388;2023-07-31T03:31:26;19.70;99.90
6865;DHT22;3471;49.678;8.388;2023-07-31T03:33:51;19.70;99.90
6865;DHT22;3471;49.678;8.388;2023-07-31T03:36:17;19.70;99.90
6865;DHT22;3471;49.678;8.388;2023-07-31T03:38:42;19.70;99.90
6865;DHT22;3471;49.678;8.388;2023-07-31T03:41:08;19.70;99.90
6865;DHT22;3471;49.678;8.388;2023-07-31T03:43:35;19.70;99.90
6865;DHT22;3471;49.678;8.388;2023-07-31T03:46:01;19.70;99.90
6865;DHT22;3471;49.678;8.388;2023-07-31T03:48:28;19.70;99.90
6865;DHT22;3471;49.678;8.388;2023-07-31T03:50:54;19.60;99.90
6865;DHT22;3471;49.678;8.388;2023-07-31T03:53:19;19.70;99.90
6865;DHT22;3471;49.678;8.388;2023-07-31T03:55:48;19.60;99.90
6865;DHT22;3471;49.678;8.388;2023-07-31T03:58:14;19.60;99.90
6865;DHT22;3471;49.678;8.388;2023-07-31T04:00:40;19.60;99.90
6865;DHT22;3471;49.678;8.388;2023-07-31T04:03:06;19.60;99.90
6865;DHT22;3471;49.678;8.388;2023-07-31T04:05:32;19.50;99.90
6865;DHT22;3471;49.678;8.388;2023-07-31T04:07:58;19.50;99.90
6865;DHT22;3471;49.678;8.388;2023-07-31T04:10:23;19.50;99.90
6865;DHT22;3471;49.678;8.388;2023-07-31T04:12:49;19.50;99.90
6865;DHT22;3471;49.678;8.388;2023-07-31T04:15:15;19.50;99.90
6865;DHT22;3471;49.678;8.388;2023-07-31T04:17:40;19.50;99.90
6865;DHT22;3471;49.678;8.388;2023-07-31T04:20:06;19.50;99.90
6865;DHT22;3471;49.678;8.388;2023-07-31T04:22:32;19.40;99.90
6865;DHT22;3471;49.678;8.388;2023-07-31T04:24:57;19.50;99.90
6865;DHT22;3471;49.678;8.388;2023-07-31T04:27:23;19.50;99.90
6865;DHT22;3471;49.678;8.388;2023-07-31T04:29:48;19.50;99.90
6865;DHT22;3471;49.678;8.388;2023-07-31T04:32:14;19.50;99.90
6865;DHT22;3471;49.678;8.388;2023-07-31T04:34:42;19.50;99.90
6865;DHT22;3471;49.678;8.388;2023-07-31T04:37:07;19.50;99.90
6865;DHT22;3471;49.678;8.388;2023-07-31T04:39:33;19.50;99.90
6865;DHT22;3471;49.678;8.388;2023-07-31T04:41:59;19.50;99.90
6865;DHT22;3471;49.678;8.388;2023-07-31T04:44:24;19.50;99.90
6865;DHT22;3471;49.678;8.388;2023-07-31T04:46:50;19.60;99.90
6865;DHT22;3471;49.678;8.388;2023-07-31T04:49:15;19.60;99.90
6865;DHT22;3471;49.678;8.388;2023-07-31T04:51:41;19.60;99.90
6865;DHT22;3471;49.678;8.388;2023-07-31T04:54:06;19.60;99.90
6865;DHT22;3471;49.678;8.388;2023-07-31T04:56:32;19.60;99.90
6865;DHT22;3471;49.678;8.388;2023-07-31T04:58:57;19.70;99.90
6865;DHT22;3471;49.678;8.388;2023-07-31T05:01:23;19.70;99.90
6865;DHT22;3471;49.678;8.388;2023-07-31T05:03:49;19.70;99.90
6865;DHT22;3471;49.678;8.388;2023-07-31T05:06:14;19.70;99.90
6865;DHT22;3471;49.678;8.388;2023-07-31T05:08:40;19.70;99.90
6865;DHT22;3471;49.678;8.388;2023-07-31T05:11:06;19.80;99.90
6865;DHT22;3471;49.678;8.388;2023-07-31T05:13:32;19.80;99.90
6865;DHT22;3471;49.678;8.388;2023-07-31T05:15:57;19.80;99.90
6865;DHT22;3471;49.678;8.388;2023-07-31T05:18:23;19.90;99.90
6865;DHT22;3471;49.678;8.388;2023-07-31T05:20:48;19.90;99.90
6865;DHT22;3471;49.678;8.388;2023-07-31T05:23:14;19.90;99.90
6865;DHT22;3471;49.678;8.388;2023-07-31T05:25:39;19.90;99.90
6865;DHT22;3471;49.678;8.388;2023-07-31T05:28:05;19.90;99.90
6865;DHT22;3471;49.678;8.388;2023-07-31T05:30:31;19.90;99.90
6865;DHT22;3471;49.678;8.388;2023-07-31T05:32:57;19.90;99.90
6865;DHT22;3471;49.678;8.388;2023-07-31T05:35:22;19.90;99.90
6865;DHT22;3471;49.678;8.388;2023-07-31T05:37:48;20.00;99.90
6865;DHT22;3471;49.678;8.388;2023-07-31T05:40:14;20.10;99.90
6865;DHT22;3471;49.678;8.388;2023-07-31T05:42:40;20.10;99.90
6865;DHT22;3471;49.678;8.388;2023-07-31T05:45:09;20.20;99.90
6865;DHT22;3471;49.678;8.388;2023-07-31T05:47:34;20.20;99.90
6865;DHT22;3471;49.678;8.388;2023-07-31T05:50:00;20.30;99.90
6865;DHT22;3471;49.678;8.388;2023-07-31T05:52:26;20.40;99.90
6865;DHT22;3471;49.678;8.388;2023-07-31T05:54:54;20.40;99.90
6865;DHT22;3471;49.678;8.388;2023-07-31T05:57:20;20.40;99.90
6865;DHT22;3471;49.678;8.388;2023-07-31T05:59:45;20.40;99.90
6865;DHT22;3471;49.678;8.388;2023-07-31T06:02:11;20.50;99.90
6865;DHT22;3471;49.678;8.388;2023-07-31T06:04:36;20.60;99.90
6865;DHT22;3471;49.678;8.388;2023-07-31T06:07:03;20.60;99.90
6865;DHT22;3471;49.678;8.388;2023-07-31T06:09:29;20.60;99.90
6865;DHT22;3471;49.678;8.388;2023-07-31T06:11:54;20.60;99.90
6865;DHT22;3471;49.678;8.388;2023-07-31T06:14:20;20.60;99.90
6865;DHT22;3471;49.678;8.388;2023-07-31T06:16:45;20.70;99.90
6865;DHT22;3471;49.678;8.388;2023-07-31T06:19:11;20.80;99.90
6865;DHT22;3471;49.678;8.388;2023-07-31T06:21:37;20.80;99.90
6865;DHT22;3471;49.678;8.388;2023-07-31T06:24:04;20.90;99.90
6865;DHT22;3471;49.678;8.388;2023-07-31T06:26:30;20.90;99.90
6865;DHT22;3471;49.678;8.388;2023-07-31T06:28:56;21.00;99.90
6865;DHT22;3471;49.678;8.388;2023-07-31T06:31:21;21.10;99.90
6865;DHT22;3471;49.678;8.388;2023-07-31T06:33:52;21.20;99.90
6865;DHT22;3471;49.678;8.388;2023-07-31T06:36:18;21.30;99.90
6865;DHT22;3471;49.678;8.388;2023-07-31T06:38:43;21.30;99.90
6865;DHT22;3471;49.678;8.388;2023-07-31T06:41:09;21.30;99.90
6865;DHT22;3471;49.678;8.388;2023-07-31T06:43:36;21.40;99.90
6865;DHT22;3471;49.678;8.388;2023-07-31T06:46:08;21.40;99.90
6865;DHT22;3471;49.678;8.388;2023-07-31T06:48:34;21.40;99.90
6865;DHT22;3471;49.678;8.388;2023-07-31T06:51:00;21.40;99.90
6865;DHT22;3471;49.678;8.388;2023-07-31T06:53:26;21.50;99.90
6865;DHT22;3471;49.678;8.388;2023-07-31T06:55:52;21.50;99.90
6865;DHT22;3471;49.678;8.388;2023-07-31T06:58:17;21.50;99.90
6865;DHT22;3471;49.678;8.388;2023-07-31T07:00:43;21.50;99.90
6865;DHT22;3471;49.678;8.388;2023-07-31T07:03:08;21.40;99.90
6865;DHT22;3471;49.678;8.388;2023-07-31T07:05:34;21.50;99.90
6865;DHT22;3471;49.678;8.388;2023-07-31T07:08:02;21.50;99.90
6865;DHT22;3471;49.678;8.388;2023-07-31T07:10:28;21.60;99.90
6865;DHT22;3471;49.678;8.388;2023-07-31T07:12:54;21.60;99.90
6865;DHT22;3471;49.678;8.388;2023-07-31T07:15:20;21.70;99.90
6865;DHT22;3471;49.678;8.388;2023-07-31T07:17:46;21.80;99.90
6865;DHT22;3471;49.678;8.388;2023-07-31T07:20:12;21.90;99.90
6865;DHT22;3471;49.678;8.388;2023-07-31T07:22:38;22.10;99.90
6865;DHT22;3471;49.678;8.388;2023-07-31T07:25:04;22.20;99.90
6865;DHT22;3471;49.678;8.388;2023-07-31T07:27:30;22.40;99.90
6865;DHT22;3471;49.678;8.388;2023-07-31T07:29:56;22.60;99.90
6865;DHT22;3471;49.678;8.388;2023-07-31T07:32:21;22.80;99.90
6865;DHT22;3471;49.678;8.388;2023-07-31T07:34:48;22.90;99.90
6865;DHT22;3471;49.678;8.388;2023-07-31T07:37:14;23.10;99.90
6865;DHT22;3471;49.678;8.388;2023-07-31T07:39:40;23.20;99.90
6865;DHT22;3471;49.678;8.388;2023-07-31T07:42:06;23.40;99.90
6865;DHT22;3471;49.678;8.388;2023-07-31T07:44:32;23.40;99.90
6865;DHT22;3471;49.678;8.388;2023-07-31T07:46:57;23.50;99.90
6865;DHT22;3471;49.678;8.388;2023-07-31T07:49:23;23.60;99.90
6865;DHT22;3471;49.678;8.388;2023-07-31T07:51:49;23.70;99.90
6865;DHT22;3471;49.678;8.388;2023-07-31T07:54:15;23.60;99.90
6865;DHT22;3471;49.678;8.388;2023-07-31T07:56:42;23.60;99.90
6865;DHT22;3471;49.678;8.388;2023-07-31T07:59:08;23.50;99.90
6865;DHT22;3471;49.678;8.388;2023-07-31T08:01:33;23.50;99.90
6865;DHT22;3471;49.678;8.388;2023-07-31T08:03:59;23.40;99.90
6865;DHT22;3471;49.678;8.388;2023-07-31T08:06:25;23.40;99.90
6865;DHT22;3471;49.678;8.388;2023-07-31T08:08:50;23.40;99.90
6865;DHT22;3471;49.678;8.388;2023-07-31T08:11:16;23.40;99.90
6865;DHT22;3471;49.678;8.388;2023-07-31T08:13:41;23.40;99.90
6865;DHT22;3471;49.678;8.388;2023-07-31T08:16:07;23.40;99.90
6865;DHT22;3471;49.678;8.388;2023-07-31T08:18:32;23.50;99.90
6865;DHT22;3471;49.678;8.388;2023-07-31T08:20:58;23.70;99.90
6865;DHT22;3471;49.678;8.388;2023-07-31T08:23:24;23.80;99.90
6865;DHT22;3471;49.678;8.388;2023-07-31T08:25:49;23.90;99.90
6865;DHT22;3471;49.678;8.388;2023-07-31T08:28:16;24.10;99.90
6865;DHT22;3471;49.678;8.388;2023-07-31T08:30:42;24.20;99.90
6865;DHT22;3471;49.678;8.388;2023-07-31T08:33:08;24.30;99.90
6865;DHT22;3471;49.678;8.388;2023-07-31T08:35:33;24.40;99.90
6865;DHT22;3471;49.678;8.388;2023-07-31T08:37:59;24.50;99.90
6865;DHT22;3471;49.678;8.388;2023-07-31T08:40:25;24.70;99.90
6865;DHT22;3471;49.678;8.388;2023-07-31T08:42:54;24.70;99.90
6865;DHT22;3471;49.678;8.388;2023-07-31T08:45:20;24.80;99.90
6865;DHT22;3471;49.678;8.388;2023-07-31T08:47:50;24.80;99.90
6865;DHT22;3471;49.678;8.388;2023-07-31T08:50:18;24.80;99.90
6865;DHT22;3471;49.678;8.388;2023-07-31T08:52:44;24.80;99.90
6865;DHT22;3471;49.678;8.388;2023-07-31T08:55:09;24.90;99.90
6865;DHT22;3471;49.678;8.388;2023-07-31T08:57:37;25.00;99.90
6865;DHT22;3471;49.678;8.388;2023-07-31T09:00:04;24.90;99.90
6865;DHT22;3471;49.678;8.388;2023-07-31T09:05:11;24.80;99.90
6865;DHT22;3471;49.678;8.388;2023-07-31T09:07:38;24.80;99.90
6865;DHT22;3471;49.678;8.388;2023-07-31T09:10:04;24.70;99.90
6865;DHT22;3471;49.678;8.388;2023-07-31T09:12:31;24.60;99.90
6865;DHT22;3471;49.678;8.388;2023-07-31T09:14:57;24.70;99.90
6865;DHT22;3471;49.678;8.388;2023-07-31T09:17:30;24.50;99.90
6865;DHT22;3471;49.678;8.388;2023-07-31T09:19:56;24.50;99.90
6865;DHT22;3471;49.678;8.388;2023-07-31T09:22:35;24.50;99.90
6865;DHT22;3471;49.678;8.388;2023-07-31T09:25:21;24.50;99.90
6865;DHT22;3471;49.678;8.388;2023-07-31T09:28:03;24.60;99.90
6865;DHT22;3471;49.678;8.388;2023-07-31T09:30:28;24.50;99.90
6865;DHT22;3471;49.678;8.388;2023-07-31T09:33:05;24.40;99.90
6865;DHT22;3471;49.678;8.388;2023-07-31T09:35:34;24.40;99.90
6865;DHT22;3471;49.678;8.388;2023-07-31T09:38:12;24.20;99.90
6865;DHT22;3471;49.678;8.388;2023-07-31T09:40:40;24.10;99.90
6865;DHT22;3471;49.678;8.388;2023-07-31T09:43:10;24.00;99.90
6865;DHT22;3471;49.678;8.388;2023-07-31T09:45:41;24.10;99.90
6865;DHT22;3471;49.678;8.388;2023-07-31T09:48:12;24.10;99.90
6865;DHT22;3471;49.678;8.388;2023-07-31T09:50:39;24.20;99.90
6865;DHT22;3471;49.678;8.388;2023-07-31T09:53:06;24.30;99.90
6865;DHT22;3471;49.678;8.388;2023-07-31T09:55:32;24.30;99.90
6865;DHT22;3471;49.678;8.388;2023-07-31T09:57:58;24.40;99.90
6865;DHT22;3471;49.678;8.388;2023-07-31T10:00:24;24.30;99.90
6865;DHT22;3471;49.678;8.388;2023-07-31T10:02:54;24.30;99.90
6865;DHT22;3471;49.678;8.388;2023-07-31T10:05:19;24.40;99.90
6865;DHT22;3471;49.678;8.388;2023-07-31T10:07:52;24.50;99.90
6865;DHT22;3471;49.678;8.388;2023-07-31T10:10:21;24.60;99.90
6865;DHT22;3471;49.678;8.388;2023-07-31T10:12:48;24.60;99.90
6865;DHT22;3471;49.678;8.388;2023-07-31T10:15:14;24.60;99.90
6865;DHT22;3471;49.678;8.388;2023-07-31T10:17:40;24.70;99.90
6865;DHT22;3471;49.678;8.388;2023-07-31T10:20:07;24.70;99.90
6865;DHT22;3471;49.678;8.388;2023-07-31T10:22:34;24.80;99.90
6865;DHT22;3471;49.678;8.388;2023-07-31T10:25:00;24.80;99.90
6865;DHT22;3471;49.678;8.388;2023-07-31T10:27:26;24.80;99.90
6865;DHT22;3471;49.678;8.388;2023-07-31T10:29:55;24.80;99.90
6865;DHT22;3471;49.678;8.388;2023-07-31T10:32:21;24.60;99.90
6865;DHT22;3471;49.678;8.388;2023-07-31T10:34:48;24.60;99.90
6865;DHT22;3471;49.678;8.388;2023-07-31T10:37:28;24.60;99.90
6865;DHT22;3471;49.678;8.388;2023-07-31T10:40:04;24.50;99.90
6865;DHT22;3471;49.678;8.388;2023-07-31T10:45:37;24.50;99.90
6865;DHT22;3471;49.678;8.388;2023-07-31T10:48:04;24.50;99.90
6865;DHT22;3471;49.678;8.388;2023-07-31T10:50:32;24.60;99.90
6865;DHT22;3471;49.678;8.388;2023-07-31T10:52:58;24.80;99.90
6865;DHT22;3471;49.678;8.388;2023-07-31T10:55:33;24.90;99.90
6865;DHT22;3471;49.678;8.388;2023-07-31T10:58:10;24.90;99.90
6865;DHT22;3471;49.678;8.388;2023-07-31T11:00:41;24.80;99.90
6865;DHT22;3471;49.678;8.388;2023-07-31T11:03:08;24.70;99.90
6865;DHT22;3471;49.678;8.388;2023-07-31T11:08:24;24.40;99.90
6865;DHT22;3471;49.678;8.388;2023-07-31T11:11:04;24.30;99.90
6865;DHT22;3471;49.678;8.388;2023-07-31T11:13:39;24.10;99.90
6865;DHT22;3471;49.678;8.388;2023-07-31T11:16:05;24.00;99.90
6865;DHT22;3471;49.678;8.388;2023-07-31T11:18:31;23.90;99.90
6865;DHT22;3471;49.678;8.388;2023-07-31T11:20:57;23.80;99.90
6865;DHT22;3471;49.678;8.388;2023-07-31T11:23:23;23.80;99.90
6865;DHT22;3471;49.678;8.388;2023-07-31T11:25:49;23.70;99.90
6865;DHT22;3471;49.678;8.388;2023-07-31T11:28:16;23.80;99.90
6865;DHT22;3471;49.678;8.388;2023-07-31T11:30:43;23.80;99.90
6865;DHT22;3471;49.678;8.388;2023-07-31T11:33:10;23.80;99.90
6865;DHT22;3471;49.678;8.388;2023-07-31T11:38:07;23.80;99.90
6865;DHT22;3471;49.678;8.388;2023-07-31T11:40:43;23.80;99.90
6865;DHT22;3471;49.678;8.388;2023-07-31T11:43:10;23.80;99.90
6865;DHT22;3471;49.678;8.388;2023-07-31T11:45:37;23.90;99.90
6865;DHT22;3471;49.678;8.388;2023-07-31T11:48:03;23.90;99.90
6865;DHT22;3471;49.678;8.388;2023-07-31T11:50:33;24.00;99.90
6865;DHT22;3471;49.678;8.388;2023-07-31T11:53:04;24.10;99.90
6865;DHT22;3471;49.678;8.388;2023-07-31T11:55:33;24.10;99.90
6865;DHT22;3471;49.678;8.388;2023-07-31T11:57:59;24.20;99.90
6865;DHT22;3471;49.678;8.388;2023-07-31T12:00:26;24.30;99.90
6865;DHT22;3471;49.678;8.388;2023-07-31T12:02:53;24.40;99.90
6865;DHT22;3471;49.678;8.388;2023-07-31T12:05:19;24.70;99.90
6865;DHT22;3471;49.678;8.388;2023-07-31T12:07:49;24.90;99.90
6865;DHT22;3471;49.678;8.388;2023-07-31T12:10:26;25.00;99.90
6865;DHT22;3471;49.678;8.388;2023-07-31T12:13:03;25.20;99.90
6865;DHT22;3471;49.678;8.388;2023-07-31T12:15:48;25.50;99.90
6865;DHT22;3471;49.678;8.388;2023-07-31T12:18:21;25.60;99.90
6865;DHT22;3471;49.678;8.388;2023-07-31T12:20:49;25.90;99.90
6865;DHT22;3471;49.678;8.388;2023-07-31T12:25:41;26.10;99.90
6865;DHT22;3471;49.678;8.388;2023-07-31T12:28:07;26.10;99.90
6865;DHT22;3471;49.678;8.388;2023-07-31T12:30:37;26.00;99.90
6865;DHT22;3471;49.678;8.388;2023-07-31T12:33:13;25.80;99.90
6865;DHT22;3471;49.678;8.388;2023-07-31T12:35:47;25.60;99.90
6865;DHT22;3471;49.678;8.388;2023-07-31T12:38:13;25.50;99.90
6865;DHT22;3471;49.678;8.388;2023-07-31T12:40:40;25.50;99.90
6865;DHT22;3471;49.678;8.388;2023-07-31T12:43:06;25.70;99.90
6865;DHT22;3471;49.678;8.388;2023-07-31T12:45:32;25.90;99.90
6865;DHT22;3471;49.678;8.388;2023-07-31T12:47:59;26.30;99.90
6865;DHT22;3471;49.678;8.388;2023-07-31T12:50:24;26.60;99.90
6865;DHT22;3471;49.678;8.388;2023-07-31T12:52:51;27.00;99.90
6865;DHT22;3471;49.678;8.388;2023-07-31T12:55:17;27.40;99.90
6865;DHT22;3471;49.678;8.388;2023-07-31T12:57:44;27.60;99.90
6865;DHT22;3471;49.678;8.388;2023-07-31T13:00:10;27.70;99.90
6865;DHT22;3471;49.678;8.388;2023-07-31T13:02:36;27.90;99.90
6865;DHT22;3471;49.678;8.388;2023-07-31T13:05:02;28.10;99.90
6865;DHT22;3471;49.678;8.388;2023-07-31T13:07:27;28.30;99.90
6865;DHT22;3471;49.678;8.388;2023-07-31T13:09:53;28.50;99.90
6865;DHT22;3471;49.678;8.388;2023-07-31T13:12:19;28.70;99.80
6865;DHT22;3471;49.678;8.388;2023-07-31T13:14:44;28.80;99.70
6865;DHT22;3471;49.678;8.388;2023-07-31T13:17:10;28.90;99.60
6865;DHT22;3471;49.678;8.388;2023-07-31T13:19:35;29.00;99.60
6865;DHT22;3471;49.678;8.388;2023-07-31T13:22:01;28.90;99.00
6865;DHT22;3471;49.678;8.388;2023-07-31T13:24:26;28.60;99.00
6865;DHT22;3471;49.678;8.388;2023-07-31T13:26:52;28.20;99.30
6865;DHT22;3471;49.678;8.388;2023-07-31T13:29:17;27.80;99.70
6865;DHT22;3471;49.678;8.388;2023-07-31T13:31:43;27.30;99.90
6865;DHT22;3471;49.678;8.388;2023-07-31T13:34:09;27.00;99.90
6865;DHT22;3471;49.678;8.388;2023-07-31T13:36:34;26.90;99.90
6865;DHT22;3471;49.678;8.388;2023-07-31T13:39:02;27.00;99.90
6865;DHT22;3471;49.678;8.388;2023-07-31T13:41:28;27.10;99.90
6865;DHT22;3471;49.678;8.388;2023-07-31T13:43:53;27.20;99.90
6865;DHT22;3471;49.678;8.388;2023-07-31T13:46:19;27.00;99.90
6865;DHT22;3471;49.678;8.388;2023-07-31T13:48:45;27.00;99.90
6865;DHT22;3471;49.678;8.388;2023-07-31T13:51:10;26.80;99.90
6865;DHT22;3471;49.678;8.388;2023-07-31T13:53:36;26.60;99.90
6865;DHT22;3471;49.678;8.388;2023-07-31T13:56:02;26.40;99.90
6865;DHT22;3471;49.678;8.388;2023-07-31T13:58:27;26.20;99.90
6865;DHT22;3471;49.678;8.388;2023-07-31T14:00:53;26.10;99.90
6865;DHT22;3471;49.678;8.388;2023-07-31T14:03:18;25.90;99.90
6865;DHT22;3471;49.678;8.388;2023-07-31T14:05:44;25.80;99.90
6865;DHT22;3471;49.678;8.388;2023-07-31T14:08:10;25.50;99.90
6865;DHT22;3471;49.678;8.388;2023-07-31T14:10:37;25.40;99.90
6865;DHT22;3471;49.678;8.388;2023-07-31T14:13:03;25.40;99.90
6865;DHT22;3471;49.678;8.388;2023-07-31T14:15:28;25.40;99.90
6865;DHT22;3471;49.678;8.388;2023-07-31T14:17:54;25.30;99.90
6865;DHT22;3471;49.678;8.388;2023-07-31T14:20:19;25.20;99.90
6865;DHT22;3471;49.678;8.388;2023-07-31T14:22:45;25.20;99.90
6865;DHT22;3471;49.678;8.388;2023-07-31T14:25:11;25.20;99.90
6865;DHT22;3471;49.678;8.388;2023-07-31T14:27:36;25.20;99.90
6865;DHT22;3471;49.678;8.388;2023-07-31T14:30:02;25.20;99.90
6865;DHT22;3471;49.678;8.388;2023-07-31T14:32:28;25.20;99.90
6865;DHT22;3471;49.678;8.388;2023-07-31T14:34:54;25.10;99.90
6865;DHT22;3471;49.678;8.388;2023-07-31T14:37:20;25.10;99.90
6865;DHT22;3471;49.678;8.388;2023-07-31T14:39:46;25.10;99.90
6865;DHT22;3471;49.678;8.388;2023-07-31T14:42:11;25.00;99.90
6865;DHT22;3471;49.678;8.388;2023-07-31T14:44:37;25.10;99.90
6865;DHT22;3471;49.678;8.388;2023-07-31T14:47:03;25.00;99.90
6865;DHT22;3471;49.678;8.388;2023-07-31T14:49:28;25.00;99.90
6865;DHT22;3471;49.678;8.388;2023-07-31T14:51:54;25.00;99.90
6865;DHT22;3471;49.678;8.388;2023-07-31T14:54:20;25.00;99.90
6865;DHT22;3471;49.678;8.388;2023-07-31T14:56:45;25.10;99.90
6865;DHT22;3471;49.678;8.388;2023-07-31T14:59:11;25.10;99.90
6865;DHT22;3471;49.678;8.388;2023-07-31T15:01:37;25.10;99.90
6865;DHT22;3471;49.678;8.388;2023-07-31T15:04:03;25.10;99.90
6865;DHT22;3471;49.678;8.388;2023-07-31T15:06:28;25.10;99.90
6865;DHT22;3471;49.678;8.388;2023-07-31T15:08:54;25.00;99.90
6865;DHT22;3471;49.678;8.388;2023-07-31T15:11:20;24.90;99.90
6865;DHT22;3471;49.678;8.388;2023-07-31T15:13:45;24.90;99.90
6865;DHT22;3471;49.678;8.388;2023-07-31T15:16:11;24.80;99.90
6865;DHT22;3471;49.678;8.388;2023-07-31T15:18:36;24.70;99.90
6865;DHT22;3471;49.678;8.388;2023-07-31T15:21:02;24.70;99.90
6865;DHT22;3471;49.678;8.388;2023-07-31T15:23:28;24.60;99.90
6865;DHT22;3471;49.678;8.388;2023-07-31T15:25:53;24.70;99.90
6865;DHT22;3471;49.678;8.388;2023-07-31T15:28:19;24.70;99.90
6865;DHT22;3471;49.678;8.388;2023-07-31T15:30:45;24.80;99.90
6865;DHT22;3471;49.678;8.388;2023-07-31T15:33:10;24.80;99.90
6865;DHT22;3471;49.678;8.388;2023-07-31T15:35:36;24.90;99.90
6865;DHT22;3471;49.678;8.388;2023-07-31T15:38:01;24.90;99.90
6865;DHT22;3471;49.678;8.388;2023-07-31T15:40:27;25.10;99.90
6865;DHT22;3471;49.678;8.388;2023-07-31T15:42:53;25.20;99.90
6865;DHT22;3471;49.678;8.388;2023-07-31T15:45:18;25.20;99.90
6865;DHT22;3471;49.678;8.388;2023-07-31T15:47:44;25.20;99.90
6865;DHT22;3471;49.678;8.388;2023-07-31T15:50:10;25.20;99.90
6865;DHT22;3471;49.678;8.388;2023-07-31T15:52:35;25.20;99.90
6865;DHT22;3471;49.678;8.388;2023-07-31T15:55:01;25.10;99.90
6865;DHT22;3471;49.678;8.388;2023-07-31T15:57:27;25.00;99.90
6865;DHT22;3471;49.678;8.388;2023-07-31T15:59:52;24.90;99.90
6865;DHT22;3471;49.678;8.388;2023-07-31T16:02:18;24.90;99.90
6865;DHT22;3471;49.678;8.388;2023-07-31T16:04:44;24.90;99.90
6865;DHT22;3471;49.678;8.388;2023-07-31T16:07:09;24.80;99.90
6865;DHT22;3471;49.678;8.388;2023-07-31T16:09:37;24.80;99.90
6865;DHT22;3471;49.678;8.388;2023-07-31T16:12:02;24.70;99.90
6865;DHT22;3471;49.678;8.388;2023-07-31T16:14:28;24.60;99.90
6865;DHT22;3471;49.678;8.388;2023-07-31T16:16:54;24.50;99.90
6865;DHT22;3471;49.678;8.388;2023-07-31T16:19:20;24.50;99.90
6865;DHT22;3471;49.678;8.388;2023-07-31T16:21:45;24.40;99.90